sensor_id;sensor_type;location;lat;lon;timestamp;P1;durP1;ratioP1;P2;durP2;ratioP2
58468;SDS011;44257;44.804;10.220;2022-10-28T00:00:02;11.73;;;6.53;;
58468;SDS011;44257;44.804;10.220;2022-10-28T00:02:29;9.35;;;6.43;;
58468;SDS011;44257;44.804;10.220;2022-10-28T00:04:55;11.55;;;6.60;;
58468;SDS011;44257;44.804;10.220;2022-10-28T00:07:22;12.90;;;6.72;;
58468;SDS011;44257;44.804;10.220;2022-10-28T00:09:47;13.38;;;7.93;;
58468;SDS011;44257;44.804;10.220;2022-10-28T00:12:14;19.00;;;6.28;;
58468;SDS011;44257;44.804;10.220;2022-10-28T00:14:40;10.93;;;7.20;;
58468;SDS011;44257;44.804;10.220;2022-10-28T00:17:06;8.63;;;5.47;;
58468;SDS011;44257;44.804;10.220;2022-10-28T00:19:32;8.68;;;7.28;;
58468;SDS011;44257;44.804;10.220;2022-10-28T00:21:58;8.23;;;5.70;;
58468;SDS011;44257;44.804;10.220;2022-10-28T00:24:23;9.02;;;5.78;;
58468;SDS011;44257;44.804;10.220;2022-10-28T00:26:49;12.75;;;7.43;;
58468;SDS011;44257;44.804;10.220;2022-10-28T00:29:17;10.32;;;7.05;;
58468;SDS011;44257;44.804;10.220;2022-10-28T00:31:44;12.93;;;7.47;;
58468;SDS011;44257;44.804;10.220;2022-10-28T00:34:12;14.38;;;7.30;;
58468;SDS011;44257;44.804;10.220;2022-10-28T00:36:40;13.38;;;6.45;;
58468;SDS011;44257;44.804;10.220;2022-10-28T00:39:11;14.38;;;6.82;;
58468;SDS011;44257;44.804;10.220;2022-10-28T00:41:43;10.27;;;6.68;;
58468;SDS011;44257;44.804;10.220;2022-10-28T00:52:59;7.25;;;5.70;;
58468;SDS011;44257;44.804;10.220;2022-10-28T00:55:27;11.00;;;6.55;;
58468;SDS011;44257;44.804;10.220;2022-10-28T00:57:53;12.63;;;6.63;;
58468;SDS011;44257;44.804;10.220;2022-10-28T01:00:21;11.90;;;8.05;;
58468;SDS011;44257;44.804;10.220;2022-10-28T01:02:48;13.65;;;7.32;;
58468;SDS011;44257;44.804;10.220;2022-10-28T01:05:15;12.00;;;7.22;;
58468;SDS011;44257;44.804;10.220;2022-10-28T01:07:45;10.38;;;4.72;;
58468;SDS011;44257;44.804;10.220;2022-10-28T01:10:11;7.45;;;5.10;;
58468;SDS011;44257;44.804;10.220;2022-10-28T01:12:43;13.07;;;6.15;;
58468;SDS011;44257;44.804;10.220;2022-10-28T01:15:34;11.27;;;6.28;;
58468;SDS011;44257;44.804;10.220;2022-10-28T01:23:36;9.38;;;6.20;;
58468;SDS011;44257;44.804;10.220;2022-10-28T01:34:43;10.63;;;6.05;;
58468;SDS011;44257;44.804;10.220;2022-10-28T01:37:32;15.52;;;8.27;;
58468;SDS011;44257;44.804;10.220;2022-10-28T01:40:14;10.68;;;6.43;;
58468;SDS011;44257;44.804;10.220;2022-10-28T01:42:43;11.25;;;6.35;;
58468;SDS011;44257;44.804;10.220;2022-10-28T01:48:03;9.70;;;6.30;;
58468;SDS011;44257;44.804;10.220;2022-10-28T01:53:52;17.40;;;6.68;;
58468;SDS011;44257;44.804;10.220;2022-10-28T01:56:22;14.15;;;6.63;;
58468;SDS011;44257;44.804;10.220;2022-10-28T01:58:52;10.15;;;6.18;;
58468;SDS011;44257;44.804;10.220;2022-10-28T02:01:22;9.85;;;6.70;;
58468;SDS011;44257;44.804;10.220;2022-10-28T02:03:50;9.60;;;5.40;;
58468;SDS011;44257;44.804;10.220;2022-10-28T02:06:21;14.27;;;8.10;;
58468;SDS011;44257;44.804;10.220;2022-10-28T02:20:52;12.40;;;7.57;;
58468;SDS011;44257;44.804;10.220;2022-10-28T02:29:11;11.68;;;6.28;;
58468;SDS011;44257;44.804;10.220;2022-10-28T02:34:20;8.50;;;5.70;;
58468;SDS011;44257;44.804;10.220;2022-10-28T02:36:51;10.38;;;6.43;;
58468;SDS011;44257;44.804;10.220;2022-10-28T02:39:26;7.70;;;5.15;;
58468;SDS011;44257;44.804;10.220;2022-10-28T02:44:29;12.27;;;7.47;;
58468;SDS011;44257;44.804;10.220;2022-10-28T02:46:58;10.30;;;7.07;;
58468;SDS011;44257;44.804;10.220;2022-10-28T02:49:29;9.38;;;6.10;;
58468;SDS011;44257;44.804;10.220;2022-10-28T02:51:59;6.82;;;4.57;;
58468;SDS011;44257;44.804;10.220;2022-10-28T02:57:18;12.98;;;7.50;;
58468;SDS011;44257;44.804;10.220;2022-10-28T02:59:50;11.52;;;7.05;;
58468;SDS011;44257;44.804;10.220;2022-10-28T03:02:21;11.50;;;7.57;;
58468;SDS011;44257;44.804;10.220;2022-10-28T03:04:48;10.68;;;6.30;;
58468;SDS011;44257;44.804;10.220;2022-10-28T03:07:14;15.45;;;6.65;;
58468;SDS011;44257;44.804;10.220;2022-10-28T03:09:40;8.18;;;6.47;;
58468;SDS011;44257;44.804;10.220;2022-10-28T03:12:05;11.48;;;7.80;;
58468;SDS011;44257;44.804;10.220;2022-10-28T03:14:31;14.43;;;7.10;;
58468;SDS011;44257;44.804;10.220;2022-10-28T03:16:57;11.18;;;5.82;;
58468;SDS011;44257;44.804;10.220;2022-10-28T03:19:23;9.60;;;4.75;;
58468;SDS011;44257;44.804;10.220;2022-10-28T03:21:49;21.50;;;7.95;;
58468;SDS011;44257;44.804;10.220;2022-10-28T03:24:15;7.95;;;6.25;;
58468;SDS011;44257;44.804;10.220;2022-10-28T03:26:41;9.75;;;6.80;;
58468;SDS011;44257;44.804;10.220;2022-10-28T03:29:07;9.30;;;5.63;;
58468;SDS011;44257;44.804;10.220;2022-10-28T03:31:33;12.48;;;6.38;;
58468;SDS011;44257;44.804;10.220;2022-10-28T03:33:58;8.38;;;5.93;;
58468;SDS011;44257;44.804;10.220;2022-10-28T03:36:24;10.32;;;6.20;;
58468;SDS011;44257;44.804;10.220;2022-10-28T03:38:50;12.98;;;6.35;;
58468;SDS011;44257;44.804;10.220;2022-10-28T03:41:16;10.75;;;6.82;;
58468;SDS011;44257;44.804;10.220;2022-10-28T03:43:42;15.57;;;6.53;;
58468;SDS011;44257;44.804;10.220;2022-10-28T03:46:09;11.95;;;6.68;;
58468;SDS011;44257;44.804;10.220;2022-10-28T03:48:34;9.98;;;6.72;;
58468;SDS011;44257;44.804;10.220;2022-10-28T03:51:00;11.82;;;6.50;;
58468;SDS011;44257;44.804;10.220;2022-10-28T03:53:26;11.57;;;6.45;;
58468;SDS011;44257;44.804;10.220;2022-10-28T03:55:52;12.00;;;6.28;;
58468;SDS011;44257;44.804;10.220;2022-10-28T03:58:20;13.05;;;7.30;;
58468;SDS011;44257;44.804;10.220;2022-10-28T04:00:47;10.77;;;6.35;;
58468;SDS011;44257;44.804;10.220;2022-10-28T04:03:14;16.95;;;7.95;;
58468;SDS011;44257;44.804;10.220;2022-10-28T04:05:40;8.43;;;6.05;;
58468;SDS011;44257;44.804;10.220;2022-10-28T04:08:06;12.23;;;6.53;;
58468;SDS011;44257;44.804;10.220;2022-10-28T04:10:32;11.30;;;6.25;;
58468;SDS011;44257;44.804;10.220;2022-10-28T04:13:01;12.57;;;5.35;;
58468;SDS011;44257;44.804;10.220;2022-10-28T04:15:29;11.10;;;6.18;;
58468;SDS011;44257;44.804;10.220;2022-10-28T04:17:55;12.45;;;6.57;;
58468;SDS011;44257;44.804;10.220;2022-10-28T04:20:21;8.10;;;5.85;;
58468;SDS011;44257;44.804;10.220;2022-10-28T04:22:47;9.90;;;5.65;;
58468;SDS011;44257;44.804;10.220;2022-10-28T04:25:13;10.40;;;5.60;;
58468;SDS011;44257;44.804;10.220;2022-10-28T04:27:39;10.88;;;6.20;;
58468;SDS011;44257;44.804;10.220;2022-10-28T04:30:05;9.80;;;6.43;;
58468;SDS011;44257;44.804;10.220;2022-10-28T04:32:31;10.52;;;5.78;;
58468;SDS011;44257;44.804;10.220;2022-10-28T04:34:57;13.95;;;7.65;;
58468;SDS011;44257;44.804;10.220;2022-10-28T04:37:23;10.63;;;6.07;;
58468;SDS011;44257;44.804;10.220;2022-10-28T04:39:49;14.40;;;6.72;;
58468;SDS011;44257;44.804;10.220;2022-10-28T04:42:15;29.65;;;8.07;;
58468;SDS011;44257;44.804;10.220;2022-10-28T04:44:40;9.20;;;6.07;;
58468;SDS011;44257;44.804;10.220;2022-10-28T04:47:06;8.75;;;5.97;;
58468;SDS011;44257;44.804;10.220;2022-10-28T04:49:32;10.55;;;6.00;;
58468;SDS011;44257;44.804;10.220;2022-10-28T04:51:58;8.60;;;5.00;;
58468;SDS011;44257;44.804;10.220;2022-10-28T04:54:24;8.95;;;6.03;;
58468;SDS011;44257;44.804;10.220;2022-10-28T04:56:52;8.18;;;5.13;;
58468;SDS011;44257;44.804;10.220;2022-10-28T04:59:19;21.27;;;8.52;;
58468;SDS011;44257;44.804;10.220;2022-10-28T05:01:44;7.25;;;4.88;;
58468;SDS011;44257;44.804;10.220;2022-10-28T05:04:10;10.00;;;5.60;;
58468;SDS011;44257;44.804;10.220;2022-10-28T05:06:36;14.43;;;5.93;;
58468;SDS011;44257;44.804;10.220;2022-10-28T05:09:02;8.32;;;4.60;;
58468;SDS011;44257;44.804;10.220;2022-10-28T05:11:28;9.18;;;4.95;;
58468;SDS011;44257;44.804;10.220;2022-10-28T05:13:54;8.98;;;7.13;;
58468;SDS011;44257;44.804;10.220;2022-10-28T05:16:20;11.70;;;5.13;;
58468;SDS011;44257;44.804;10.220;2022-10-28T05:18:45;7.00;;;4.70;;
58468;SDS011;44257;44.804;10.220;2022-10-28T05:21:11;10.32;;;4.75;;
58468;SDS011;44257;44.804;10.220;2022-10-28T05:23:38;9.73;;;5.65;;
58468;SDS011;44257;44.804;10.220;2022-10-28T05:26:04;7.75;;;5.57;;
58468;SDS011;44257;44.804;10.220;2022-10-28T05:28:30;10.25;;;5.65;;
58468;SDS011;44257;44.804;10.220;2022-10-28T05:30:56;12.15;;;5.93;;
58468;SDS011;44257;44.804;10.220;2022-10-28T05:33:22;16.23;;;7.38;;
58468;SDS011;44257;44.804;10.220;2022-10-28T05:35:48;11.73;;;5.90;;
58468;SDS011;44257;44.804;10.220;2022-10-28T05:38:14;15.25;;;7.38;;
58468;SDS011;44257;44.804;10.220;2022-10-28T05:40:40;8.15;;;5.60;;
58468;SDS011;44257;44.804;10.220;2022-10-28T05:43:07;14.15;;;6.05;;
58468;SDS011;44257;44.804;10.220;2022-10-28T05:45:34;7.43;;;5.00;;
58468;SDS011;44257;44.804;10.220;2022-10-28T05:48:00;9.02;;;5.18;;
58468;SDS011;44257;44.804;10.220;2022-10-28T05:50:26;8.15;;;5.78;;
58468;SDS011;44257;44.804;10.220;2022-10-28T05:52:55;7.75;;;5.38;;
58468;SDS011;44257;44.804;10.220;2022-10-28T05:55:22;10.35;;;7.05;;
58468;SDS011;44257;44.804;10.220;2022-10-28T05:57:51;12.13;;;5.80;;
58468;SDS011;44257;44.804;10.220;2022-10-28T06:00:18;9.00;;;5.22;;
58468;SDS011;44257;44.804;10.220;2022-10-28T06:02:46;8.02;;;6.43;;
58468;SDS011;44257;44.804;10.220;2022-10-28T06:05:12;15.98;;;7.28;;
58468;SDS011;44257;44.804;10.220;2022-10-28T06:07:39;8.32;;;4.95;;
58468;SDS011;44257;44.804;10.220;2022-10-28T06:21:51;16.00;;;8.13;;
58468;SDS011;44257;44.804;10.220;2022-10-28T06:24:17;8.57;;;4.55;;
58468;SDS011;44257;44.804;10.220;2022-10-28T06:26:43;7.93;;;4.60;;
58468;SDS011;44257;44.804;10.220;2022-10-28T06:29:09;11.02;;;5.63;;
58468;SDS011;44257;44.804;10.220;2022-10-28T06:31:39;13.60;;;5.63;;
58468;SDS011;44257;44.804;10.220;2022-10-28T06:34:07;8.65;;;4.75;;
58468;SDS011;44257;44.804;10.220;2022-10-28T06:36:33;8.25;;;5.10;;
58468;SDS011;44257;44.804;10.220;2022-10-28T06:38:59;8.05;;;4.75;;
58468;SDS011;44257;44.804;10.220;2022-10-28T06:41:24;7.78;;;4.78;;
58468;SDS011;44257;44.804;10.220;2022-10-28T06:43:50;9.85;;;5.18;;
58468;SDS011;44257;44.804;10.220;2022-10-28T06:46:16;9.85;;;5.63;;
58468;SDS011;44257;44.804;10.220;2022-10-28T06:48:42;8.45;;;5.78;;
58468;SDS011;44257;44.804;10.220;2022-10-28T06:51:08;11.85;;;6.05;;
58468;SDS011;44257;44.804;10.220;2022-10-28T06:53:33;9.13;;;6.68;;
58468;SDS011;44257;44.804;10.220;2022-10-28T06:55:59;9.93;;;5.78;;
58468;SDS011;44257;44.804;10.220;2022-10-28T06:58:26;10.80;;;5.88;;
58468;SDS011;44257;44.804;10.220;2022-10-28T07:00:52;10.73;;;6.50;;
58468;SDS011;44257;44.804;10.220;2022-10-28T07:03:18;8.38;;;5.28;;
58468;SDS011;44257;44.804;10.220;2022-10-28T07:05:44;12.38;;;6.80;;
58468;SDS011;44257;44.804;10.220;2022-10-28T07:08:11;6.47;;;4.07;;
58468;SDS011;44257;44.804;10.220;2022-10-28T07:10:38;7.22;;;4.60;;
58468;SDS011;44257;44.804;10.220;2022-10-28T07:13:04;12.60;;;5.30;;
58468;SDS011;44257;44.804;10.220;2022-10-28T07:15:30;7.18;;;4.88;;
58468;SDS011;44257;44.804;10.220;2022-10-28T07:17:57;15.65;;;7.97;;
58468;SDS011;44257;44.804;10.220;2022-10-28T07:20:24;9.70;;;5.03;;
58468;SDS011;44257;44.804;10.220;2022-10-28T07:22:58;10.52;;;5.35;;
58468;SDS011;44257;44.804;10.220;2022-10-28T07:25:26;11.15;;;6.30;;
58468;SDS011;44257;44.804;10.220;2022-10-28T07:27:55;12.68;;;7.43;;
58468;SDS011;44257;44.804;10.220;2022-10-28T07:30:22;10.57;;;6.88;;
58468;SDS011;44257;44.804;10.220;2022-10-28T07:32:48;13.50;;;8.68;;
58468;SDS011;44257;44.804;10.220;2022-10-28T07:35:14;17.85;;;7.72;;
58468;SDS011;44257;44.804;10.220;2022-10-28T07:37:40;8.88;;;5.88;;
58468;SDS011;44257;44.804;10.220;2022-10-28T07:40:05;21.92;;;8.52;;
58468;SDS011;44257;44.804;10.220;2022-10-28T07:42:32;22.33;;;8.18;;
58468;SDS011;44257;44.804;10.220;2022-10-28T07:44:58;12.18;;;7.30;;
58468;SDS011;44257;44.804;10.220;2022-10-28T07:47:24;13.27;;;7.55;;
58468;SDS011;44257;44.804;10.220;2022-10-28T07:49:50;9.38;;;7.35;;
58468;SDS011;44257;44.804;10.220;2022-10-28T07:52:16;12.00;;;6.07;;
58468;SDS011;44257;44.804;10.220;2022-10-28T07:54:42;11.38;;;6.57;;
58468;SDS011;44257;44.804;10.220;2022-10-28T07:57:07;10.80;;;6.25;;
58468;SDS011;44257;44.804;10.220;2022-10-28T07:59:33;13.05;;;6.03;;
58468;SDS011;44257;44.804;10.220;2022-10-28T08:01:59;12.10;;;7.35;;
58468;SDS011;44257;44.804;10.220;2022-10-28T08:04:27;9.23;;;5.68;;
58468;SDS011;44257;44.804;10.220;2022-10-28T08:06:54;11.65;;;6.47;;
58468;SDS011;44257;44.804;10.220;2022-10-28T08:09:20;8.30;;;5.88;;
58468;SDS011;44257;44.804;10.220;2022-10-28T08:11:46;8.13;;;4.57;;
58468;SDS011;44257;44.804;10.220;2022-10-28T08:14:12;11.43;;;5.95;;
58468;SDS011;44257;44.804;10.220;2022-10-28T08:16:38;8.10;;;5.25;;
58468;SDS011;44257;44.804;10.220;2022-10-28T08:19:04;6.95;;;4.03;;
58468;SDS011;44257;44.804;10.220;2022-10-28T08:21:29;8.63;;;5.53;;
58468;SDS011;44257;44.804;10.220;2022-10-28T08:23:55;12.32;;;6.28;;
58468;SDS011;44257;44.804;10.220;2022-10-28T08:26:21;11.52;;;5.32;;
58468;SDS011;44257;44.804;10.220;2022-10-28T08:28:47;10.32;;;5.18;;
58468;SDS011;44257;44.804;10.220;2022-10-28T08:31:13;17.92;;;4.97;;
58468;SDS011;44257;44.804;10.220;2022-10-28T08:33:40;8.68;;;5.20;;
58468;SDS011;44257;44.804;10.220;2022-10-28T08:36:09;14.50;;;6.20;;
58468;SDS011;44257;44.804;10.220;2022-10-28T08:38:37;12.07;;;6.63;;
58468;SDS011;44257;44.804;10.220;2022-10-28T08:41:11;8.02;;;4.70;;
58468;SDS011;44257;44.804;10.220;2022-10-28T08:49:17;11.07;;;4.45;;
58468;SDS011;44257;44.804;10.220;2022-10-28T08:54:21;8.90;;;5.18;;
58468;SDS011;44257;44.804;10.220;2022-10-28T08:56:55;10.35;;;5.68;;
58468;SDS011;44257;44.804;10.220;2022-10-28T08:59:28;10.48;;;4.80;;
58468;SDS011;44257;44.804;10.220;2022-10-28T09:04:42;8.73;;;5.75;;
58468;SDS011;44257;44.804;10.220;2022-10-28T09:07:13;20.23;;;7.72;;
58468;SDS011;44257;44.804;10.220;2022-10-28T09:09:45;17.23;;;8.57;;
58468;SDS011;44257;44.804;10.220;2022-10-28T09:18:12;18.75;;;8.38;;
58468;SDS011;44257;44.804;10.220;2022-10-28T09:23:20;14.98;;;7.70;;
58468;SDS011;44257;44.804;10.220;2022-10-28T09:37:16;19.67;;;12.02;;
58468;SDS011;44257;44.804;10.220;2022-10-28T09:39:27;22.73;;;11.48;;
58468;SDS011;44257;44.804;10.220;2022-10-28T09:41:58;19.20;;;10.07;;
58468;SDS011;44257;44.804;10.220;2022-10-28T09:46:57;22.75;;;10.45;;
58468;SDS011;44257;44.804;10.220;2022-10-28T09:49:28;24.20;;;9.10;;
58468;SDS011;44257;44.804;10.220;2022-10-28T09:54:45;18.77;;;10.73;;
58468;SDS011;44257;44.804;10.220;2022-10-28T09:57:14;22.27;;;10.67;;
58468;SDS011;44257;44.804;10.220;2022-10-28T09:59:40;22.30;;;11.98;;
58468;SDS011;44257;44.804;10.220;2022-10-28T10:02:14;19.92;;;11.70;;
58468;SDS011;44257;44.804;10.220;2022-10-28T10:04:48;22.55;;;10.57;;
58468;SDS011;44257;44.804;10.220;2022-10-28T10:07:15;18.55;;;9.80;;
58468;SDS011;44257;44.804;10.220;2022-10-28T10:09:52;22.92;;;13.38;;
58468;SDS011;44257;44.804;10.220;2022-10-28T10:12:18;21.48;;;11.75;;
58468;SDS011;44257;44.804;10.220;2022-10-28T10:14:48;25.40;;;11.10;;
58468;SDS011;44257;44.804;10.220;2022-10-28T10:17:20;22.88;;;10.88;;
58468;SDS011;44257;44.804;10.220;2022-10-28T10:22:29;19.77;;;12.30;;
58468;SDS011;44257;44.804;10.220;2022-10-28T10:24:57;17.13;;;9.93;;
58468;SDS011;44257;44.804;10.220;2022-10-28T10:27:24;23.05;;;11.77;;
58468;SDS011;44257;44.804;10.220;2022-10-28T10:29:51;22.35;;;11.18;;
58468;SDS011;44257;44.804;10.220;2022-10-28T10:32:20;22.38;;;11.43;;
58468;SDS011;44257;44.804;10.220;2022-10-28T10:34:53;22.15;;;12.55;;
58468;SDS011;44257;44.804;10.220;2022-10-28T10:37:33;19.23;;;9.43;;
58468;SDS011;44257;44.804;10.220;2022-10-28T10:40:22;24.80;;;10.93;;
58468;SDS011;44257;44.804;10.220;2022-10-28T10:42:51;21.88;;;12.55;;
58468;SDS011;44257;44.804;10.220;2022-10-28T10:45:22;18.73;;;11.23;;
58468;SDS011;44257;44.804;10.220;2022-10-28T10:50:39;21.52;;;11.00;;
58468;SDS011;44257;44.804;10.220;2022-10-28T10:53:15;23.20;;;11.45;;
58468;SDS011;44257;44.804;10.220;2022-10-28T10:55:48;21.35;;;10.82;;
58468;SDS011;44257;44.804;10.220;2022-10-28T10:58:27;20.23;;;9.90;;
58468;SDS011;44257;44.804;10.220;2022-10-28T11:00:56;27.05;;;10.25;;
58468;SDS011;44257;44.804;10.220;2022-10-28T11:03:32;24.25;;;12.20;;
58468;SDS011;44257;44.804;10.220;2022-10-28T11:06:01;20.38;;;9.52;;
58468;SDS011;44257;44.804;10.220;2022-10-28T11:11:04;23.20;;;11.18;;
58468;SDS011;44257;44.804;10.220;2022-10-28T11:13:33;19.42;;;11.57;;
58468;SDS011;44257;44.804;10.220;2022-10-28T11:16:00;24.88;;;10.80;;
58468;SDS011;44257;44.804;10.220;2022-10-28T11:18:28;30.25;;;11.85;;
58468;SDS011;44257;44.804;10.220;2022-10-28T11:21:11;20.88;;;9.95;;
58468;SDS011;44257;44.804;10.220;2022-10-28T11:26:41;21.60;;;10.40;;
58468;SDS011;44257;44.804;10.220;2022-10-28T11:29:14;19.98;;;10.85;;
58468;SDS011;44257;44.804;10.220;2022-10-28T11:31:45;20.42;;;10.85;;
58468;SDS011;44257;44.804;10.220;2022-10-28T11:34:33;17.17;;;10.77;;
58468;SDS011;44257;44.804;10.220;2022-10-28T11:40:47;21.50;;;11.48;;
58468;SDS011;44257;44.804;10.220;2022-10-28T11:48:59;33.05;;;13.27;;
58468;SDS011;44257;44.804;10.220;2022-10-28T11:57:17;18.27;;;11.45;;
58468;SDS011;44257;44.804;10.220;2022-10-28T12:09:02;26.40;;;13.20;;
58468;SDS011;44257;44.804;10.220;2022-10-28T12:11:53;26.08;;;11.73;;
58468;SDS011;44257;44.804;10.220;2022-10-28T12:14:47;20.20;;;11.45;;
58468;SDS011;44257;44.804;10.220;2022-10-28T12:17:17;23.20;;;11.98;;
58468;SDS011;44257;44.804;10.220;2022-10-28T12:19:55;23.13;;;12.27;;
58468;SDS011;44257;44.804;10.220;2022-10-28T12:22:26;24.88;;;11.15;;
58468;SDS011;44257;44.804;10.220;2022-10-28T12:24:53;21.52;;;11.60;;
58468;SDS011;44257;44.804;10.220;2022-10-28T12:27:25;23.77;;;10.93;;
58468;SDS011;44257;44.804;10.220;2022-10-28T12:29:57;26.67;;;12.63;;
58468;SDS011;44257;44.804;10.220;2022-10-28T12:32:28;25.55;;;11.50;;
58468;SDS011;44257;44.804;10.220;2022-10-28T12:35:05;26.77;;;9.77;;
58468;SDS011;44257;44.804;10.220;2022-10-28T12:37:46;23.02;;;12.18;;
58468;SDS011;44257;44.804;10.220;2022-10-28T12:40:26;22.10;;;11.68;;
58468;SDS011;44257;44.804;10.220;2022-10-28T12:43:00;27.42;;;12.07;;
58468;SDS011;44257;44.804;10.220;2022-10-28T12:45:30;25.45;;;12.15;;
58468;SDS011;44257;44.804;10.220;2022-10-28T12:50:38;21.52;;;11.52;;
58468;SDS011;44257;44.804;10.220;2022-10-28T12:56:08;23.50;;;10.95;;
58468;SDS011;44257;44.804;10.220;2022-10-28T13:01:46;21.08;;;10.48;;
58468;SDS011;44257;44.804;10.220;2022-10-28T13:04:13;21.40;;;11.02;;
58468;SDS011;44257;44.804;10.220;2022-10-28T13:07:23;26.85;;;13.43;;
58468;SDS011;44257;44.804;10.220;2022-10-28T13:26:29;21.85;;;10.27;;
58468;SDS011;44257;44.804;10.220;2022-10-28T13:29:00;17.50;;;10.90;;
58468;SDS011;44257;44.804;10.220;2022-10-28T13:32:01;21.35;;;10.38;;
58468;SDS011;44257;44.804;10.220;2022-10-28T13:34:25;24.25;;;10.40;;
58468;SDS011;44257;44.804;10.220;2022-10-28T13:36:56;19.40;;;10.02;;
58468;SDS011;44257;44.804;10.220;2022-10-28T13:42:54;20.48;;;12.00;;
58468;SDS011;44257;44.804;10.220;2022-10-28T13:44:52;16.70;;;8.20;;
58468;SDS011;44257;44.804;10.220;2022-10-28T13:52:30;20.27;;;10.05;;
58468;SDS011;44257;44.804;10.220;2022-10-28T13:57:47;15.80;;;8.05;;
58468;SDS011;44257;44.804;10.220;2022-10-28T14:02:54;13.65;;;7.63;;
58468;SDS011;44257;44.804;10.220;2022-10-28T14:05:51;18.00;;;8.90;;
58468;SDS011;44257;44.804;10.220;2022-10-28T14:10:58;18.45;;;8.32;;
58468;SDS011;44257;44.804;10.220;2022-10-28T14:13:25;14.63;;;5.35;;
58468;SDS011;44257;44.804;10.220;2022-10-28T14:16:10;11.93;;;5.40;;
58468;SDS011;44257;44.804;10.220;2022-10-28T14:21:42;9.43;;;4.68;;
58468;SDS011;44257;44.804;10.220;2022-10-28T14:24:40;10.70;;;5.55;;
58468;SDS011;44257;44.804;10.220;2022-10-28T14:29:43;14.65;;;7.35;;
58468;SDS011;44257;44.804;10.220;2022-10-28T14:45:39;13.90;;;7.22;;
58468;SDS011;44257;44.804;10.220;2022-10-28T14:48:56;12.52;;;6.75;;
58468;SDS011;44257;44.804;10.220;2022-10-28T14:51:28;11.98;;;5.60;;
58468;SDS011;44257;44.804;10.220;2022-10-28T14:54:05;11.30;;;6.30;;
58468;SDS011;44257;44.804;10.220;2022-10-28T14:56:36;10.00;;;4.95;;
58468;SDS011;44257;44.804;10.220;2022-10-28T14:59:15;11.90;;;4.72;;
58468;SDS011;44257;44.804;10.220;2022-10-28T15:04:15;7.78;;;4.38;;
58468;SDS011;44257;44.804;10.220;2022-10-28T15:06:43;10.73;;;5.13;;
58468;SDS011;44257;44.804;10.220;2022-10-28T15:09:15;8.65;;;4.57;;
58468;SDS011;44257;44.804;10.220;2022-10-28T15:12:06;12.10;;;5.63;;
58468;SDS011;44257;44.804;10.220;2022-10-28T15:14:38;8.20;;;5.05;;
58468;SDS011;44257;44.804;10.220;2022-10-28T15:17:10;7.40;;;4.05;;
58468;SDS011;44257;44.804;10.220;2022-10-28T15:19:50;10.32;;;4.32;;
58468;SDS011;44257;44.804;10.220;2022-10-28T15:24:51;8.65;;;4.82;;
58468;SDS011;44257;44.804;10.220;2022-10-28T15:27:18;14.63;;;5.18;;
58468;SDS011;44257;44.804;10.220;2022-10-28T15:29:46;11.57;;;4.53;;
58468;SDS011;44257;44.804;10.220;2022-10-28T15:32:23;13.13;;;4.70;;
58468;SDS011;44257;44.804;10.220;2022-10-28T15:34:51;11.10;;;4.78;;
58468;SDS011;44257;44.804;10.220;2022-10-28T15:37:18;10.82;;;4.80;;
58468;SDS011;44257;44.804;10.220;2022-10-28T15:39:46;9.75;;;5.10;;
58468;SDS011;44257;44.804;10.220;2022-10-28T15:45:00;9.73;;;4.72;;
58468;SDS011;44257;44.804;10.220;2022-10-28T15:50:04;11.43;;;5.53;;
58468;SDS011;44257;44.804;10.220;2022-10-28T15:52:47;10.07;;;5.35;;
58468;SDS011;44257;44.804;10.220;2022-10-28T15:58:00;12.73;;;5.03;;
58468;SDS011;44257;44.804;10.220;2022-10-28T16:00:31;10.30;;;4.47;;
58468;SDS011;44257;44.804;10.220;2022-10-28T16:08:02;9.93;;;4.45;;
58468;SDS011;44257;44.804;10.220;2022-10-28T16:10:46;9.15;;;4.63;;
58468;SDS011;44257;44.804;10.220;2022-10-28T16:13:25;8.60;;;4.22;;
58468;SDS011;44257;44.804;10.220;2022-10-28T16:16:21;10.43;;;4.45;;
58468;SDS011;44257;44.804;10.220;2022-10-28T16:18:59;10.52;;;5.63;;
58468;SDS011;44257;44.804;10.220;2022-10-28T16:21:32;9.35;;;4.95;;
58468;SDS011;44257;44.804;10.220;2022-10-28T16:23:59;9.98;;;4.38;;
58468;SDS011;44257;44.804;10.220;2022-10-28T16:26:29;9.40;;;4.47;;
58468;SDS011;44257;44.804;10.220;2022-10-28T16:28:55;7.05;;;3.88;;
58468;SDS011;44257;44.804;10.220;2022-10-28T16:31:22;7.63;;;3.88;;
58468;SDS011;44257;44.804;10.220;2022-10-28T16:33:52;7.13;;;4.53;;
58468;SDS011;44257;44.804;10.220;2022-10-28T16:36:18;8.43;;;4.00;;
58468;SDS011;44257;44.804;10.220;2022-10-28T16:38:44;9.80;;;4.68;;
58468;SDS011;44257;44.804;10.220;2022-10-28T16:41:13;12.15;;;3.97;;
58468;SDS011;44257;44.804;10.220;2022-10-28T16:43:41;11.65;;;4.95;;
58468;SDS011;44257;44.804;10.220;2022-10-28T16:46:08;13.05;;;5.90;;
58468;SDS011;44257;44.804;10.220;2022-10-28T16:48:35;11.15;;;5.55;;
58468;SDS011;44257;44.804;10.220;2022-10-28T16:51:02;13.90;;;5.75;;
58468;SDS011;44257;44.804;10.220;2022-10-28T16:53:49;13.07;;;4.68;;
58468;SDS011;44257;44.804;10.220;2022-10-28T16:56:15;8.15;;;4.53;;
58468;SDS011;44257;44.804;10.220;2022-10-28T16:58:41;8.38;;;5.57;;
58468;SDS011;44257;44.804;10.220;2022-10-28T17:01:08;8.55;;;4.07;;
58468;SDS011;44257;44.804;10.220;2022-10-28T17:03:35;8.02;;;4.53;;
58468;SDS011;44257;44.804;10.220;2022-10-28T17:06:01;10.55;;;4.65;;
58468;SDS011;44257;44.804;10.220;2022-10-28T17:08:27;8.50;;;4.75;;
58468;SDS011;44257;44.804;10.220;2022-10-28T17:10:53;9.88;;;5.03;;
58468;SDS011;44257;44.804;10.220;2022-10-28T17:13:19;7.18;;;4.63;;
58468;SDS011;44257;44.804;10.220;2022-10-28T17:15:50;11.07;;;4.22;;
58468;SDS011;44257;44.804;10.220;2022-10-28T17:18:17;13.50;;;5.10;;
58468;SDS011;44257;44.804;10.220;2022-10-28T17:20:45;18.50;;;7.07;;
58468;SDS011;44257;44.804;10.220;2022-10-28T17:23:11;9.75;;;6.88;;
58468;SDS011;44257;44.804;10.220;2022-10-28T17:25:37;9.23;;;5.65;;
58468;SDS011;44257;44.804;10.220;2022-10-28T17:28:03;9.55;;;6.25;;
58468;SDS011;44257;44.804;10.220;2022-10-28T17:30:29;10.80;;;5.85;;
58468;SDS011;44257;44.804;10.220;2022-10-28T17:32:55;9.07;;;4.53;;
58468;SDS011;44257;44.804;10.220;2022-10-28T17:35:21;10.98;;;5.90;;
58468;SDS011;44257;44.804;10.220;2022-10-28T17:37:47;9.02;;;6.07;;
58468;SDS011;44257;44.804;10.220;2022-10-28T17:40:13;7.25;;;4.32;;
58468;SDS011;44257;44.804;10.220;2022-10-28T17:42:40;5.75;;;4.32;;
58468;SDS011;44257;44.804;10.220;2022-10-28T17:45:06;6.63;;;4.05;;
58468;SDS011;44257;44.804;10.220;2022-10-28T17:47:32;11.63;;;5.22;;
58468;SDS011;44257;44.804;10.220;2022-10-28T17:49:59;8.60;;;4.75;;
58468;SDS011;44257;44.804;10.220;2022-10-28T17:52:25;9.70;;;5.45;;
58468;SDS011;44257;44.804;10.220;2022-10-28T17:54:52;8.85;;;5.93;;
58468;SDS011;44257;44.804;10.220;2022-10-28T17:57:18;10.30;;;5.03;;
58468;SDS011;44257;44.804;10.220;2022-10-28T17:59:44;8.95;;;4.95;;
58468;SDS011;44257;44.804;10.220;2022-10-28T18:02:10;8.07;;;6.13;;
58468;SDS011;44257;44.804;10.220;2022-10-28T18:04:37;8.35;;;5.47;;
58468;SDS011;44257;44.804;10.220;2022-10-28T18:07:03;10.38;;;5.95;;
58468;SDS011;44257;44.804;10.220;2022-10-28T18:09:29;7.95;;;4.68;;
58468;SDS011;44257;44.804;10.220;2022-10-28T18:11:56;9.25;;;5.40;;